sensor_id;sensor_type;location;lat;lon;timestamp;temperature;humidity
45207;DHT22;30950;53.086;21.576;2022-12-20T00:01:47;-1.10;99.90
45207;DHT22;30950;53.086;21.576;2022-12-20T00:04:14;-1.10;99.90
45207;DHT22;30950;53.086;21.576;2022-12-20T00:06:42;-1.10;99.90
45207;DHT22;30950;53.086;21.576;2022-12-20T00:09:10;-1.10;99.90
45207;DHT22;30950;53.086;21.576;2022-12-20T00:11:39;-1.10;99.90
45207;DHT22;30950;53.086;21.576;2022-12-20T00:14:08;-1.10;99.90
45207;DHT22;30950;53.086;21.576;2022-12-20T00:16:36;-1.10;99.90
45207;DHT22;30950;53.086;21.576;2022-12-20T00:19:06;-1.10;99.90
45207;DHT22;30950;53.086;21.576;2022-12-20T00:21:34;-1.10;99.90
45207;DHT22;30950;53.086;21.576;2022-12-20T00:24:03;-1.10;99.90
45207;DHT22;30950;53.086;21.576;2022-12-20T00:26:33;-1.10;99.90
45207;DHT22;30950;53.086;21.576;2022-12-20T00:29:00;-1.20;99.90
45207;DHT22;30950;53.086;21.576;2022-12-20T00:31:30;-1.10;99.90
45207;DHT22;30950;53.086;21.576;2022-12-20T00:33:59;-1.20;99.90
45207;DHT22;30950;53.086;21.576;2022-12-20T00:36:28;-1.10;99.90
45207;DHT22;30950;53.086;21.576;2022-12-20T00:38:57;-1.10;99.90
45207;DHT22;30950;53.086;21.576;2022-12-20T00:41:30;-1.10;99.90
45207;DHT22;30950;53.086;21.576;2022-12-20T00:43:59;-1.10;99.90
45207;DHT22;30950;53.086;21.576;2022-12-20T00:46:26;-1.10;99.90
45207;DHT22;30950;53.086;21.576;2022-12-20T00:48:55;-1.10;99.90
45207;DHT22;30950;53.086;21.576;2022-12-20T00:51:26;-1.00;99.90
45207;DHT22;30950;53.086;21.576;2022-12-20T00:53:54;-1.10;99.90
45207;DHT22;30950;53.086;21.576;2022-12-20T00:56:22;-1.00;99.90
45207;DHT22;30950;53.086;21.576;2022-12-20T00:58:57;-1.00;99.90
45207;DHT22;30950;53.086;21.576;2022-12-20T01:01:28;-1.00;99.90
45207;DHT22;30950;53.086;21.576;2022-12-20T01:03:57;-1.00;99.90
45207;DHT22;30950;53.086;21.576;2022-12-20T01:06:26;-1.00;99.90
45207;DHT22;30950;53.086;21.576;2022-12-20T01:08:54;-0.90;99.90
45207;DHT22;30950;53.086;21.576;2022-12-20T01:11:24;-0.90;99.90
45207;DHT22;30950;53.086;21.576;2022-12-20T01:13:54;-1.00;99.90
45207;DHT22;30950;53.086;21.576;2022-12-20T01:18:54;-1.00;99.90
45207;DHT22;30950;53.086;21.576;2022-12-20T01:21:24;-1.00;99.90
45207;DHT22;30950;53.086;21.576;2022-12-20T01:23:52;-1.00;99.90
45207;DHT22;30950;53.086;21.576;2022-12-20T01:26:21;-1.00;99.90
45207;DHT22;30950;53.086;21.576;2022-12-20T01:28:53;-1.00;99.90
45207;DHT22;30950;53.086;21.576;2022-12-20T01:31:21;-1.00;99.90
45207;DHT22;30950;53.086;21.576;2022-12-20T01:33:49;-1.00;99.90
45207;DHT22;30950;53.086;21.576;2022-12-20T01:36:22;-0.90;99.90
45207;DHT22;30950;53.086;21.576;2022-12-20T01:39:01;-0.80;99.90
45207;DHT22;30950;53.086;21.576;2022-12-20T01:41:30;-0.80;99.90
45207;DHT22;30950;53.086;21.576;2022-12-20T01:44:05;-0.70;99.90
45207;DHT22;30950;53.086;21.576;2022-12-20T01:46:34;-0.60;99.90
45207;DHT22;30950;53.086;21.576;2022-12-20T01:52:14;-0.50;99.90
45207;DHT22;30950;53.086;21.576;2022-12-20T01:54:54;-0.40;99.90
45207;DHT22;30950;53.086;21.576;2022-12-20T01:57:56;-0.40;99.90
45207;DHT22;30950;53.086;21.576;2022-12-20T02:00:25;-0.30;99.90
45207;DHT22;30950;53.086;21.576;2022-12-20T02:02:53;-0.30;99.90
45207;DHT22;30950;53.086;21.576;2022-12-20T02:05:22;-0.30;99.90
45207;DHT22;30950;53.086;21.576;2022-12-20T02:07:52;-0.30;99.90
45207;DHT22;30950;53.086;21.576;2022-12-20T02:10:23;-0.20;99.90
45207;DHT22;30950;53.086;21.576;2022-12-20T02:13:01;-0.20;99.90
45207;DHT22;30950;53.086;21.576;2022-12-20T02:15:44;-0.20;99.90
45207;DHT22;30950;53.086;21.576;2022-12-20T02:21:10;-0.20;99.90
45207;DHT22;30950;53.086;21.576;2022-12-20T02:24:09;-0.10;99.90
45207;DHT22;30950;53.086;21.576;2022-12-20T02:27:01;-0.10;99.90
45207;DHT22;30950;53.086;21.576;2022-12-20T02:32:16;-0.10;99.90
45207;DHT22;30950;53.086;21.576;2022-12-20T02:34:46;0.00;99.90
45207;DHT22;30950;53.086;21.576;2022-12-20T02:37:13;0.00;99.90
45207;DHT22;30950;53.086;21.576;2022-12-20T02:39:41;0.00;99.90
45207;DHT22;30950;53.086;21.576;2022-12-20T02:42:13;0.00;99.90
45207;DHT22;30950;53.086;21.576;2022-12-20T02:44:59;0.00;99.90
45207;DHT22;30950;53.086;21.576;2022-12-20T02:47:52;0.00;99.90
45207;DHT22;30950;53.086;21.576;2022-12-20T02:50:31;0.00;99.90
45207;DHT22;30950;53.086;21.576;2022-12-20T02:52:59;0.10;99.90
45207;DHT22;30950;53.086;21.576;2022-12-20T02:58:25;0.20;99.90
45207;DHT22;30950;53.086;21.576;2022-12-20T03:00:59;0.20;99.90
45207;DHT22;30950;53.086;21.576;2022-12-20T03:03:32;0.20;99.90
45207;DHT22;30950;53.086;21.576;2022-12-20T03:06:00;0.30;99.90
45207;DHT22;30950;53.086;21.576;2022-12-20T03:08:29;0.30;99.90
45207;DHT22;30950;53.086;21.576;2022-12-20T03:10:57;0.40;99.90
45207;DHT22;30950;53.086;21.576;2022-12-20T03:13:25;0.40;99.90
45207;DHT22;30950;53.086;21.576;2022-12-20T03:16:01;0.40;99.90
45207;DHT22;30950;53.086;21.576;2022-12-20T03:18:28;0.40;99.90
45207;DHT22;30950;53.086;21.576;2022-12-20T03:20:56;0.50;99.90
45207;DHT22;30950;53.086;21.576;2022-12-20T03:23:23;0.50;99.90
45207;DHT22;30950;53.086;21.576;2022-12-20T03:25:50;0.60;99.90
45207;DHT22;30950;53.086;21.576;2022-12-20T03:28:29;0.60;99.90
45207;DHT22;30950;53.086;21.576;2022-12-20T03:30:56;0.60;99.90
45207;DHT22;30950;53.086;21.576;2022-12-20T03:33:24;0.60;99.90
45207;DHT22;30950;53.086;21.576;2022-12-20T03:35:53;0.70;99.90
45207;DHT22;30950;53.086;21.576;2022-12-20T03:38:21;0.60;99.90
45207;DHT22;30950;53.086;21.576;2022-12-20T03:40:48;0.70;99.90
45207;DHT22;30950;53.086;21.576;2022-12-20T03:43:20;0.70;99.90
45207;DHT22;30950;53.086;21.576;2022-12-20T03:45:47;0.70;99.90
45207;DHT22;30950;53.086;21.576;2022-12-20T03:48:15;0.70;99.90
45207;DHT22;30950;53.086;21.576;2022-12-20T03:50:42;0.70;99.90
45207;DHT22;30950;53.086;21.576;2022-12-20T03:53:10;0.70;99.90
45207;DHT22;30950;53.086;21.576;2022-12-20T03:55:37;0.70;99.90
45207;DHT22;30950;53.086;21.576;2022-12-20T03:58:05;0.70;99.90
45207;DHT22;30950;53.086;21.576;2022-12-20T04:00:36;0.70;99.90
45207;DHT22;30950;53.086;21.576;2022-12-20T04:03:22;0.70;99.90
45207;DHT22;30950;53.086;21.576;2022-12-20T04:05:50;0.70;99.90
45207;DHT22;30950;53.086;21.576;2022-12-20T04:08:18;0.70;99.90
45207;DHT22;30950;53.086;21.576;2022-12-20T04:10:48;0.80;99.90
45207;DHT22;30950;53.086;21.576;2022-12-20T04:13:36;0.80;99.90
45207;DHT22;30950;53.086;21.576;2022-12-20T04:16:04;0.80;99.90
45207;DHT22;30950;53.086;21.576;2022-12-20T04:18:32;0.80;99.90
45207;DHT22;30950;53.086;21.576;2022-12-20T04:21:00;0.80;99.90
45207;DHT22;30950;53.086;21.576;2022-12-20T04:23:30;0.90;99.90
45207;DHT22;30950;53.086;21.576;2022-12-20T04:25:58;0.90;99.90
45207;DHT22;30950;53.086;21.576;2022-12-20T04:28:27;0.90;99.90
45207;DHT22;30950;53.086;21.576;2022-12-20T04:30:56;0.90;99.90
45207;DHT22;30950;53.086;21.576;2022-12-20T04:33:28;0.90;99.90
45207;DHT22;30950;53.086;21.576;2022-12-20T04:35:55;0.90;99.90
45207;DHT22;30950;53.086;21.576;2022-12-20T04:38:24;0.90;99.90
45207;DHT22;30950;53.086;21.576;2022-12-20T04:40:54;0.90;99.90
45207;DHT22;30950;53.086;21.576;2022-12-20T04:43:24;0.90;99.90
45207;DHT22;30950;53.086;21.576;2022-12-20T04:45:55;1.00;99.90
45207;DHT22;30950;53.086;21.576;2022-12-20T04:48:26;1.00;99.90
45207;DHT22;30950;53.086;21.576;2022-12-20T04:51:14;1.00;99.90
45207;DHT22;30950;53.086;21.576;2022-12-20T04:53:43;1.00;99.90
45207;DHT22;30950;53.086;21.576;2022-12-20T04:56:26;1.00;99.90
45207;DHT22;30950;53.086;21.576;2022-12-20T04:59:01;0.90;99.90
45207;DHT22;30950;53.086;21.576;2022-12-20T05:01:30;1.00;99.90
45207;DHT22;30950;53.086;21.576;2022-12-20T05:03:57;0.90;99.90
45207;DHT22;30950;53.086;21.576;2022-12-20T05:06:30;1.00;99.90
45207;DHT22;30950;53.086;21.576;2022-12-20T05:08:58;1.00;99.90
45207;DHT22;30950;53.086;21.576;2022-12-20T05:11:25;1.00;99.90
45207;DHT22;30950;53.086;21.576;2022-12-20T05:13:55;1.00;99.90
45207;DHT22;30950;53.086;21.576;2022-12-20T05:16:22;1.00;99.90
45207;DHT22;30950;53.086;21.576;2022-12-20T05:18:52;1.00;99.90
45207;DHT22;30950;53.086;21.576;2022-12-20T05:21:20;1.00;99.90
45207;DHT22;30950;53.086;21.576;2022-12-20T05:24:08;1.00;99.90
45207;DHT22;30950;53.086;21.576;2022-12-20T05:27:20;1.00;99.90
45207;DHT22;30950;53.086;21.576;2022-12-20T05:29:48;1.00;99.90
45207;DHT22;30950;53.086;21.576;2022-12-20T05:32:15;1.10;99.90
45207;DHT22;30950;53.086;21.576;2022-12-20T05:34:43;1.10;99.90
45207;DHT22;30950;53.086;21.576;2022-12-20T05:37:11;1.10;99.90
45207;DHT22;30950;53.086;21.576;2022-12-20T05:39:40;1.10;99.90
45207;DHT22;30950;53.086;21.576;2022-12-20T05:42:14;1.10;99.90
45207;DHT22;30950;53.086;21.576;2022-12-20T05:44:42;1.10;99.90
45207;DHT22;30950;53.086;21.576;2022-12-20T05:47:09;1.10;99.90
45207;DHT22;30950;53.086;21.576;2022-12-20T05:49:38;1.10;99.90
45207;DHT22;30950;53.086;21.576;2022-12-20T05:52:09;1.20;99.90
45207;DHT22;30950;53.086;21.576;2022-12-20T05:54:39;1.10;99.90
45207;DHT22;30950;53.086;21.576;2022-12-20T05:57:10;1.10;99.90
45207;DHT22;30950;53.086;21.576;2022-12-20T05:59:40;1.20;99.90
45207;DHT22;30950;53.086;21.576;2022-12-20T06:02:16;1.20;99.90
45207;DHT22;30950;53.086;21.576;2022-12-20T06:04:47;1.20;99.90
45207;DHT22;30950;53.086;21.576;2022-12-20T06:07:23;1.20;99.90
45207;DHT22;30950;53.086;21.576;2022-12-20T06:09:56;1.30;99.90
45207;DHT22;30950;53.086;21.576;2022-12-20T06:12:33;1.30;99.90
45207;DHT22;30950;53.086;21.576;2022-12-20T06:15:01;1.30;99.90
45207;DHT22;30950;53.086;21.576;2022-12-20T06:17:28;1.30;99.90
45207;DHT22;30950;53.086;21.576;2022-12-20T06:19:57;1.30;99.90
45207;DHT22;30950;53.086;21.576;2022-12-20T06:22:24;1.40;99.90
45207;DHT22;30950;53.086;21.576;2022-12-20T06:24:55;1.40;99.90
45207;DHT22;30950;53.086;21.576;2022-12-20T06:27:26;1.40;99.90
45207;DHT22;30950;53.086;21.576;2022-12-20T06:30:04;1.40;99.90
45207;DHT22;30950;53.086;21.576;2022-12-20T06:32:43;1.40;99.90
45207;DHT22;30950;53.086;21.576;2022-12-20T06:35:12;1.40;99.90
45207;DHT22;30950;53.086;21.576;2022-12-20T06:37:41;1.50;99.90
45207;DHT22;30950;53.086;21.576;2022-12-20T06:40:11;1.50;99.90
45207;DHT22;30950;53.086;21.576;2022-12-20T06:42:39;1.50;99.90
45207;DHT22;30950;53.086;21.576;2022-12-20T06:45:07;1.50;99.90
45207;DHT22;30950;53.086;21.576;2022-12-20T06:47:35;1.50;99.90
45207;DHT22;30950;53.086;21.576;2022-12-20T06:50:06;1.50;99.90
45207;DHT22;30950;53.086;21.576;2022-12-20T06:52:34;1.60;99.90
45207;DHT22;30950;53.086;21.576;2022-12-20T06:55:03;1.60;99.90
45207;DHT22;30950;53.086;21.576;2022-12-20T06:57:34;1.60;99.90
45207;DHT22;30950;53.086;21.576;2022-12-20T07:00:03;1.60;99.90
45207;DHT22;30950;53.086;21.576;2022-12-20T07:02:31;1.60;99.90
45207;DHT22;30950;53.086;21.576;2022-12-20T07:04:59;1.60;99.90
45207;DHT22;30950;53.086;21.576;2022-12-20T07:07:26;1.60;99.90
45207;DHT22;30950;53.086;21.576;2022-12-20T07:09:53;1.60;99.90
45207;DHT22;30950;53.086;21.576;2022-12-20T07:12:21;1.60;99.90
45207;DHT22;30950;53.086;21.576;2022-12-20T07:14:49;1.60;99.90
45207;DHT22;30950;53.086;21.576;2022-12-20T07:17:16;1.60;99.90
45207;DHT22;30950;53.086;21.576;2022-12-20T07:19:44;1.60;99.90
45207;DHT22;30950;53.086;21.576;2022-12-20T07:22:16;1.60;99.90
45207;DHT22;30950;53.086;21.576;2022-12-20T07:24:44;1.60;99.90
45207;DHT22;30950;53.086;21.576;2022-12-20T07:27:12;1.70;99.90
45207;DHT22;30950;53.086;21.576;2022-12-20T07:29:40;1.60;99.90
45207;DHT22;30950;53.086;21.576;2022-12-20T07:32:08;1.70;99.90
45207;DHT22;30950;53.086;21.576;2022-12-20T07:34:36;1.70;99.90
45207;DHT22;30950;53.086;21.576;2022-12-20T07:37:03;1.70;99.90
45207;DHT22;30950;53.086;21.576;2022-12-20T07:39:31;1.70;99.90
45207;DHT22;30950;53.086;21.576;2022-12-20T07:41:58;1.70;99.90
45207;DHT22;30950;53.086;21.576;2022-12-20T07:44:26;1.70;99.90
45207;DHT22;30950;53.086;21.576;2022-12-20T07:46:53;1.70;99.90
45207;DHT22;30950;53.086;21.576;2022-12-20T07:49:21;1.70;99.90
45207;DHT22;30950;53.086;21.576;2022-12-20T07:51:53;1.70;99.90
45207;DHT22;30950;53.086;21.576;2022-12-20T07:54:25;1.80;99.90
45207;DHT22;30950;53.086;21.576;2022-12-20T07:56:57;1.80;99.90
45207;DHT22;30950;53.086;21.576;2022-12-20T07:59:38;1.80;99.90
45207;DHT22;30950;53.086;21.576;2022-12-20T08:02:11;1.80;99.90
45207;DHT22;30950;53.086;21.576;2022-12-20T08:04:40;1.80;99.90
45207;DHT22;30950;53.086;21.576;2022-12-20T08:07:08;1.80;99.90
45207;DHT22;30950;53.086;21.576;2022-12-20T08:09:39;1.80;99.90
45207;DHT22;30950;53.086;21.576;2022-12-20T08:12:09;1.80;99.90
45207;DHT22;30950;53.086;21.576;2022-12-20T08:14:37;1.80;99.90
45207;DHT22;30950;53.086;21.576;2022-12-20T08:17:04;1.80;99.90
45207;DHT22;30950;53.086;21.576;2022-12-20T08:19:31;1.80;99.90
45207;DHT22;30950;53.086;21.576;2022-12-20T08:21:59;1.90;99.90
45207;DHT22;30950;53.086;21.576;2022-12-20T08:24:26;1.90;99.90
45207;DHT22;30950;53.086;21.576;2022-12-20T08:26:53;1.90;99.90
45207;DHT22;30950;53.086;21.576;2022-12-20T08:29:21;1.90;99.90
45207;DHT22;30950;53.086;21.576;2022-12-20T08:31:49;1.90;99.90
45207;DHT22;30950;53.086;21.576;2022-12-20T08:34:17;2.00;99.90
45207;DHT22;30950;53.086;21.576;2022-12-20T08:36:44;2.00;99.90
45207;DHT22;30950;53.086;21.576;2022-12-20T08:39:12;2.00;99.90
45207;DHT22;30950;53.086;21.576;2022-12-20T08:41:39;2.00;99.90
45207;DHT22;30950;53.086;21.576;2022-12-20T08:44:07;2.00;99.90
45207;DHT22;30950;53.086;21.576;2022-12-20T08:46:35;2.00;99.90
45207;DHT22;30950;53.086;21.576;2022-12-20T08:49:04;2.00;99.90
45207;DHT22;30950;53.086;21.576;2022-12-20T08:51:32;2.10;99.90
45207;DHT22;30950;53.086;21.576;2022-12-20T08:53:59;2.10;99.90
45207;DHT22;30950;53.086;21.576;2022-12-20T08:56:28;2.10;99.90
45207;DHT22;30950;53.086;21.576;2022-12-20T08:58:56;2.20;99.90
45207;DHT22;30950;53.086;21.576;2022-12-20T09:01:23;2.20;99.90
45207;DHT22;30950;53.086;21.576;2022-12-20T09:03:53;2.30;99.90
45207;DHT22;30950;53.086;21.576;2022-12-20T09:06:21;2.30;99.90
45207;DHT22;30950;53.086;21.576;2022-12-20T09:08:49;2.30;99.90
45207;DHT22;30950;53.086;21.576;2022-12-20T09:11:19;2.30;99.90
45207;DHT22;30950;53.086;21.576;2022-12-20T09:13:50;2.40;99.90
45207;DHT22;30950;53.086;21.576;2022-12-20T09:16:20;2.40;99.90
45207;DHT22;30950;53.086;21.576;2022-12-20T09:18:53;2.40;99.90
45207;DHT22;30950;53.086;21.576;2022-12-20T09:21:31;2.40;99.90
45207;DHT22;30950;53.086;21.576;2022-12-20T09:23:59;2.40;99.90
45207;DHT22;30950;53.086;21.576;2022-12-20T09:26:26;2.40;99.90
45207;DHT22;30950;53.086;21.576;2022-12-20T09:28:54;2.40;99.90
45207;DHT22;30950;53.086;21.576;2022-12-20T09:31:24;2.50;99.90
45207;DHT22;30950;53.086;21.576;2022-12-20T09:33:56;2.50;99.90
45207;DHT22;30950;53.086;21.576;2022-12-20T09:36:25;2.60;99.90
45207;DHT22;30950;53.086;21.576;2022-12-20T09:38:54;2.60;99.90
45207;DHT22;30950;53.086;21.576;2022-12-20T09:41:37;2.60;99.90
45207;DHT22;30950;53.086;21.576;2022-12-20T09:44:29;2.70;99.90
45207;DHT22;30950;53.086;21.576;2022-12-20T09:47:14;2.70;99.90
45207;DHT22;30950;53.086;21.576;2022-12-20T09:49:46;2.60;99.90
45207;DHT22;30950;53.086;21.576;2022-12-20T09:53:17;2.60;99.90
45207;DHT22;30950;53.086;21.576;2022-12-20T09:55:44;2.70;99.90
45207;DHT22;30950;53.086;21.576;2022-12-20T10:00:50;2.70;99.90
45207;DHT22;30950;53.086;21.576;2022-12-20T10:03:31;2.70;99.90
45207;DHT22;30950;53.086;21.576;2022-12-20T10:08:50;2.70;99.90
45207;DHT22;30950;53.086;21.576;2022-12-20T10:11:40;2.60;99.90
45207;DHT22;30950;53.086;21.576;2022-12-20T10:20:30;2.60;99.90
45207;DHT22;30950;53.086;21.576;2022-12-20T10:25:32;2.70;99.90
45207;DHT22;30950;53.086;21.576;2022-12-20T10:28:03;2.70;99.90
45207;DHT22;30950;53.086;21.576;2022-12-20T10:30:36;2.80;99.90
45207;DHT22;30950;53.086;21.576;2022-12-20T10:33:03;3.10;99.90
45207;DHT22;30950;53.086;21.576;2022-12-20T10:35:38;3.10;99.90
45207;DHT22;30950;53.086;21.576;2022-12-20T10:38:09;3.30;99.90
45207;DHT22;30950;53.086;21.576;2022-12-20T10:43:42;3.30;99.90
45207;DHT22;30950;53.086;21.576;2022-12-20T10:46:11;3.30;99.90
45207;DHT22;30950;53.086;21.576;2022-12-20T10:48:41;3.30;99.90
45207;DHT22;30950;53.086;21.576;2022-12-20T10:58:53;3.30;99.90
45207;DHT22;30950;53.086;21.576;2022-12-20T11:01:23;3.20;99.90
45207;DHT22;30950;53.086;21.576;2022-12-20T11:06:20;3.20;99.90
45207;DHT22;30950;53.086;21.576;2022-12-20T11:08:48;3.20;99.90
45207;DHT22;30950;53.086;21.576;2022-12-20T11:11:23;3.20;99.90
45207;DHT22;30950;53.086;21.576;2022-12-20T11:13:51;3.20;99.90
45207;DHT22;30950;53.086;21.576;2022-12-20T11:19:01;3.20;99.90
45207;DHT22;30950;53.086;21.576;2022-12-20T11:35:24;3.50;99.90
45207;DHT22;30950;53.086;21.576;2022-12-20T11:51:45;3.60;99.90
45207;DHT22;30950;53.086;21.576;2022-12-20T11:54:28;3.60;99.90
45207;DHT22;30950;53.086;21.576;2022-12-20T11:57:02;3.60;99.90
45207;DHT22;30950;53.086;21.576;2022-12-20T11:59:56;3.60;99.90
45207;DHT22;30950;53.086;21.576;2022-12-20T12:02:41;3.60;99.90
45207;DHT22;30950;53.086;21.576;2022-12-20T12:07:48;3.50;99.90
45207;DHT22;30950;53.086;21.576;2022-12-20T12:10:23;3.50;99.90
45207;DHT22;30950;53.086;21.576;2022-12-20T12:13:02;3.50;99.90
45207;DHT22;30950;53.086;21.576;2022-12-20T12:15:52;3.50;99.90
45207;DHT22;30950;53.086;21.576;2022-12-20T12:18:26;3.40;99.90
45207;DHT22;30950;53.086;21.576;2022-12-20T12:26:23;3.50;99.90
45207;DHT22;30950;53.086;21.576;2022-12-20T12:45:50;3.40;99.90
45207;DHT22;30950;53.086;21.576;2022-12-20T12:50:51;3.50;99.90
45207;DHT22;30950;53.086;21.576;2022-12-20T12:53:47;3.50;99.90
45207;DHT22;30950;53.086;21.576;2022-12-20T12:59:49;3.50;99.90
45207;DHT22;30950;53.086;21.576;2022-12-20T13:04:59;3.50;99.90
45207;DHT22;30950;53.086;21.576;2022-12-20T13:12:55;3.50;99.90
45207;DHT22;30950;53.086;21.576;2022-12-20T13:20:30;3.50;99.90
45207;DHT22;30950;53.086;21.576;2022-12-20T13:25:40;3.50;99.90
45207;DHT22;30950;53.086;21.576;2022-12-20T13:30:45;3.50;99.90
45207;DHT22;30950;53.086;21.576;2022-12-20T13:33:23;3.60;99.90
45207;DHT22;30950;53.086;21.576;2022-12-20T13:39:45;3.60;99.90
45207;DHT22;30950;53.086;21.576;2022-12-20T13:42:06;3.70;99.90
45207;DHT22;30950;53.086;21.576;2022-12-20T13:44:45;3.60;99.90
45207;DHT22;30950;53.086;21.576;2022-12-20T13:47:27;3.60;99.90
45207;DHT22;30950;53.086;21.576;2022-12-20T13:50:00;3.60;99.90
45207;DHT22;30950;53.086;21.576;2022-12-20T13:52:31;3.60;99.90
45207;DHT22;30950;53.086;21.576;2022-12-20T13:55:07;3.60;99.90
45207;DHT22;30950;53.086;21.576;2022-12-20T13:57:43;3.60;99.90
45207;DHT22;30950;53.086;21.576;2022-12-20T14:00:23;3.50;99.90
45207;DHT22;30950;53.086;21.576;2022-12-20T14:02:54;3.60;99.90
45207;DHT22;30950;53.086;21.576;2022-12-20T14:05:31;3.50;99.90
45207;DHT22;30950;53.086;21.576;2022-12-20T14:08:05;3.50;99.90
45207;DHT22;30950;53.086;21.576;2022-12-20T14:10:34;3.50;99.90
45207;DHT22;30950;53.086;21.576;2022-12-20T14:13:02;3.40;99.90
45207;DHT22;30950;53.086;21.576;2022-12-20T14:15:33;3.40;99.90
45207;DHT22;30950;53.086;21.576;2022-12-20T14:18:14;3.40;99.90
45207;DHT22;30950;53.086;21.576;2022-12-20T14:20:42;3.40;99.90
45207;DHT22;30950;53.086;21.576;2022-12-20T14:23:14;3.40;99.90
45207;DHT22;30950;53.086;21.576;2022-12-20T14:25:59;3.40;99.90
45207;DHT22;30950;53.086;21.576;2022-12-20T14:28:34;3.40;99.90
45207;DHT22;30950;53.086;21.576;2022-12-20T14:31:02;3.40;99.90
45207;DHT22;30950;53.086;21.576;2022-12-20T14:33:39;3.40;99.90
45207;DHT22;30950;53.086;21.576;2022-12-20T14:38:50;3.40;99.90
45207;DHT22;30950;53.086;21.576;2022-12-20T14:41:38;3.40;99.90
45207;DHT22;30950;53.086;21.576;2022-12-20T14:46:34;3.40;99.90
45207;DHT22;30950;53.086;21.576;2022-12-20T14:51:50;3.30;99.90
45207;DHT22;30950;53.086;21.576;2022-12-20T14:54:26;3.40;99.90
45207;DHT22;30950;53.086;21.576;2022-12-20T15:02:44;3.40;99.90
45207;DHT22;30950;53.086;21.576;2022-12-20T15:08:21;3.30;99.90
45207;DHT22;30950;53.086;21.576;2022-12-20T15:15:57;3.40;99.90
45207;DHT22;30950;53.086;21.576;2022-12-20T15:18:26;3.40;99.90
45207;DHT22;30950;53.086;21.576;2022-12-20T15:21:18;3.40;99.90
45207;DHT22;30950;53.086;21.576;2022-12-20T15:23:53;3.30;99.90
45207;DHT22;30950;53.086;21.576;2022-12-20T15:26:23;3.30;99.90
45207;DHT22;30950;53.086;21.576;2022-12-20T15:28:51;3.30;99.90
45207;DHT22;30950;53.086;21.576;2022-12-20T15:31:20;3.30;99.90
45207;DHT22;30950;53.086;21.576;2022-12-20T15:34:00;3.30;99.90
45207;DHT22;30950;53.086;21.576;2022-12-20T15:36:29;3.30;99.90
45207;DHT22;30950;53.086;21.576;2022-12-20T15:38:57;3.30;99.90
45207;DHT22;30950;53.086;21.576;2022-12-20T15:41:47;3.30;99.90
45207;DHT22;30950;53.086;21.576;2022-12-20T15:44:20;3.20;99.90
45207;DHT22;30950;53.086;21.576;2022-12-20T15:46:49;3.20;99.90
45207;DHT22;30950;53.086;21.576;2022-12-20T15:49:19;3.10;99.90
45207;DHT22;30950;53.086;21.576;2022-12-20T15:51:48;3.10;99.90
45207;DHT22;30950;53.086;21.576;2022-12-20T15:54:36;3.10;99.90
45207;DHT22;30950;53.086;21.576;2022-12-20T15:57:06;3.10;99.90
45207;DHT22;30950;53.086;21.576;2022-12-20T15:59:36;3.00;99.90
45207;DHT22;30950;53.086;21.576;2022-12-20T16:02:25;3.00;99.90
45207;DHT22;30950;53.086;21.576;2022-12-20T16:04:54;2.90;99.90
45207;DHT22;30950;53.086;21.576;2022-12-20T16:07:21;2.90;99.90
45207;DHT22;30950;53.086;21.576;2022-12-20T16:09:49;2.90;99.90
45207;DHT22;30950;53.086;21.576;2022-12-20T16:12:32;2.90;99.90
45207;DHT22;30950;53.086;21.576;2022-12-20T16:15:01;2.80;99.90
45207;DHT22;30950;53.086;21.576;2022-12-20T16:17:28;2.80;99.90
45207;DHT22;30950;53.086;21.576;2022-12-20T16:19:56;2.80;99.90
45207;DHT22;30950;53.086;21.576;2022-12-20T16:22:23;2.80;99.90
45207;DHT22;30950;53.086;21.576;2022-12-20T16:24:51;2.80;99.90
45207;DHT22;30950;53.086;21.576;2022-12-20T16:27:18;2.80;99.90
45207;DHT22;30950;53.086;21.576;2022-12-20T16:29:46;2.80;99.90
45207;DHT22;30950;53.086;21.576;2022-12-20T16:32:16;2.80;99.90
45207;DHT22;30950;53.086;21.576;2022-12-20T16:34:45;2.80;99.90
45207;DHT22;30950;53.086;21.576;2022-12-20T16:37:12;2.80;99.90
45207;DHT22;30950;53.086;21.576;2022-12-20T16:39:40;2.80;99.90
45207;DHT22;30950;53.086;21.576;2022-12-20T16:42:16;2.90;99.90
45207;DHT22;30950;53.086;21.576;2022-12-20T16:44:44;2.80;99.90
45207;DHT22;30950;53.086;21.576;2022-12-20T16:47:13;2.80;99.90
45207;DHT22;30950;53.086;21.576;2022-12-20T16:49:43;2.90;99.90
45207;DHT22;30950;53.086;21.576;2022-12-20T16:52:19;2.80;99.90
45207;DHT22;30950;53.086;21.576;2022-12-20T16:54:49;2.80;99.90
45207;DHT22;30950;53.086;21.576;2022-12-20T16:57:16;2.90;99.90
45207;DHT22;30950;53.086;21.576;2022-12-20T16:59:43;2.90;99.90
45207;DHT22;30950;53.086;21.576;2022-12-20T17:02:37;2.90;99.90
45207;DHT22;30950;53.086;21.576;2022-12-20T17:05:05;2.90;99.90
45207;DHT22;30950;53.086;21.576;2022-12-20T17:07:33;2.80;99.90
45207;DHT22;30950;53.086;21.576;2022-12-20T17:10:08;2.90;99.90
45207;DHT22;30950;53.086;21.576;2022-12-20T17:12:36;2.90;99.90
45207;DHT22;30950;53.086;21.576;2022-12-20T17:15:04;2.90;99.90
45207;DHT22;30950;53.086;21.576;2022-12-20T17:17:31;2.90;99.90
45207;DHT22;30950;53.086;21.576;2022-12-20T17:19:58;2.90;99.90
45207;DHT22;30950;53.086;21.576;2022-12-20T17:22:26;2.90;99.90
45207;DHT22;30950;53.086;21.576;2022-12-20T17:25:24;2.90;99.90
45207;DHT22;30950;53.086;21.576;2022-12-20T17:27:52;3.00;99.90
45207;DHT22;30950;53.086;21.576;2022-12-20T17:30:21;2.90;99.90
45207;DHT22;30950;53.086;21.576;2022-12-20T17:32:49;2.90;99.90
45207;DHT22;30950;53.086;21.576;2022-12-20T17:37:50;3.00;99.90
45207;DHT22;30950;53.086;21.576;2022-12-20T17:40:21;2.90;99.90
45207;DHT22;30950;53.086;21.576;2022-12-20T17:42:48;2.90;99.90
45207;DHT22;30950;53.086;21.576;2022-12-20T17:45:34;2.90;99.90
45207;DHT22;30950;53.086;21.576;2022-12-20T17:48:03;2.90;99.90
45207;DHT22;30950;53.086;21.576;2022-12-20T17:50:31;2.90;99.90
45207;DHT22;30950;53.086;21.576;2022-12-20T17:52:58;2.90;99.90
45207;DHT22;30950;53.086;21.576;2022-12-20T17:55:27;2.90;99.90
45207;DHT22;30950;53.086;21.576;2022-12-20T17:57:54;2.90;99.90
45207;DHT22;30950;53.086;21.576;2022-12-20T18:00:28;2.90;99.90
45207;DHT22;30950;53.086;21.576;2022-12-20T18:03:05;2.90;99.90
45207;DHT22;30950;53.086;21.576;2022-12-20T18:05:33;2.90;99.90
45207;DHT22;30950;53.086;21.576;2022-12-20T18:08:00;2.90;99.90
45207;DHT22;30950;53.086;21.576;2022-12-20T18:10:28;2.90;99.90
45207;DHT22;30950;53.086;21.576;2022-12-20T18:12:55;2.90;99.90
45207;DHT22;30950;53.086;21.576;2022-12-20T18:15:24;2.90;99.90
45207;DHT22;30950;53.086;21.576;2022-12-20T18:17:53;2.90;99.90
45207;DHT22;30950;53.086;21.576;2022-12-20T18:20:20;2.90;99.90
45207;DHT22;30950;53.086;21.576;2022-12-20T18:22:47;2.90;99.90
45207;DHT22;30950;53.086;21.576;2022-12-20T18:25:15;2.80;99.90